sensor_id;sensor_type;location;lat;lon;timestamp;P1;durP1;ratioP1;P2;durP2;ratioP2
47575;SDS011;33304;52.456;13.328;2022-10-30T00:01:38;3.47;;;2.83;;
47575;SDS011;33304;52.456;13.328;2022-10-30T00:04:05;3.73;;;2.73;;
47575;SDS011;33304;52.456;13.328;2022-10-30T00:06:32;3.47;;;2.70;;
47575;SDS011;33304;52.456;13.328;2022-10-30T00:08:59;3.73;;;2.13;;
47575;SDS011;33304;52.456;13.328;2022-10-30T00:11:26;2.07;;;1.93;;
47575;SDS011;33304;52.456;13.328;2022-10-30T00:13:55;4.00;;;2.57;;
47575;SDS011;33304;52.456;13.328;2022-10-30T00:16:22;2.63;;;2.43;;
47575;SDS011;33304;52.456;13.328;2022-10-30T00:18:49;1.87;;;1.77;;
47575;SDS011;33304;52.456;13.328;2022-10-30T00:21:16;3.00;;;2.67;;
47575;SDS011;33304;52.456;13.328;2022-10-30T00:23:45;3.27;;;2.97;;
47575;SDS011;33304;52.456;13.328;2022-10-30T00:26:13;2.30;;;2.10;;
47575;SDS011;33304;52.456;13.328;2022-10-30T00:28:41;2.80;;;2.40;;
47575;SDS011;33304;52.456;13.328;2022-10-30T00:31:09;2.47;;;2.23;;
47575;SDS011;33304;52.456;13.328;2022-10-30T00:33:36;2.10;;;1.90;;
47575;SDS011;33304;52.456;13.328;2022-10-30T00:36:04;2.73;;;2.40;;
47575;SDS011;33304;52.456;13.328;2022-10-30T00:38:31;2.57;;;2.37;;
47575;SDS011;33304;52.456;13.328;2022-10-30T00:40:59;2.63;;;2.43;;
47575;SDS011;33304;52.456;13.328;2022-10-30T00:43:27;2.70;;;1.90;;
47575;SDS011;33304;52.456;13.328;2022-10-30T00:45:57;2.63;;;2.40;;
47575;SDS011;33304;52.456;13.328;2022-10-30T00:48:28;2.77;;;2.47;;
47575;SDS011;33304;52.456;13.328;2022-10-30T00:50:55;3.17;;;2.27;;
47575;SDS011;33304;52.456;13.328;2022-10-30T00:53:25;2.17;;;2.00;;
47575;SDS011;33304;52.456;13.328;2022-10-30T00:55:54;3.13;;;2.80;;
47575;SDS011;33304;52.456;13.328;2022-10-30T00:58:25;3.93;;;2.83;;
47575;SDS011;33304;52.456;13.328;2022-10-30T01:00:56;2.73;;;2.33;;
47575;SDS011;33304;52.456;13.328;2022-10-30T01:03:29;3.00;;;2.13;;
47575;SDS011;33304;52.456;13.328;2022-10-30T01:05:59;4.00;;;2.40;;
47575;SDS011;33304;52.456;13.328;2022-10-30T01:08:28;2.60;;;2.40;;
47575;SDS011;33304;52.456;13.328;2022-10-30T01:10:56;2.57;;;2.37;;
47575;SDS011;33304;52.456;13.328;2022-10-30T01:13:25;3.27;;;2.67;;
47575;SDS011;33304;52.456;13.328;2022-10-30T01:15:58;2.17;;;1.90;;
47575;SDS011;33304;52.456;13.328;2022-10-30T01:18:37;2.10;;;2.00;;
47575;SDS011;33304;52.456;13.328;2022-10-30T01:21:18;2.80;;;2.40;;
47575;SDS011;33304;52.456;13.328;2022-10-30T01:24:05;2.20;;;2.00;;
47575;SDS011;33304;52.456;13.328;2022-10-30T01:26:43;2.70;;;2.50;;
47575;SDS011;33304;52.456;13.328;2022-10-30T01:29:21;2.53;;;2.33;;
47575;SDS011;33304;52.456;13.328;2022-10-30T01:32:05;2.37;;;2.10;;
47575;SDS011;33304;52.456;13.328;2022-10-30T01:34:46;2.90;;;2.33;;
47575;SDS011;33304;52.456;13.328;2022-10-30T01:37:24;2.50;;;2.13;;
47575;SDS011;33304;52.456;13.328;2022-10-30T01:40:02;2.90;;;2.67;;
47575;SDS011;33304;52.456;13.328;2022-10-30T01:42:41;2.93;;;2.30;;
47575;SDS011;33304;52.456;13.328;2022-10-30T01:45:21;2.37;;;2.13;;
47575;SDS011;33304;52.456;13.328;2022-10-30T01:48:09;2.87;;;2.30;;
47575;SDS011;33304;52.456;13.328;2022-10-30T01:50:54;2.70;;;2.47;;
47575;SDS011;33304;52.456;13.328;2022-10-30T01:53:28;2.47;;;2.27;;
47575;SDS011;33304;52.456;13.328;2022-10-30T01:56:09;3.07;;;2.47;;
47575;SDS011;33304;52.456;13.328;2022-10-30T01:58:48;3.93;;;2.70;;
47575;SDS011;33304;52.456;13.328;2022-10-30T02:01:22;3.13;;;2.33;;
47575;SDS011;33304;52.456;13.328;2022-10-30T02:03:50;2.40;;;2.20;;
47575;SDS011;33304;52.456;13.328;2022-10-30T02:06:19;2.97;;;2.63;;
47575;SDS011;33304;52.456;13.328;2022-10-30T02:08:47;2.93;;;2.57;;
47575;SDS011;33304;52.456;13.328;2022-10-30T02:11:14;4.03;;;2.80;;
47575;SDS011;33304;52.456;13.328;2022-10-30T02:13:42;2.40;;;2.20;;
47575;SDS011;33304;52.456;13.328;2022-10-30T02:16:09;2.60;;;2.40;;
47575;SDS011;33304;52.456;13.328;2022-10-30T02:18:37;2.27;;;2.07;;
47575;SDS011;33304;52.456;13.328;2022-10-30T02:21:06;3.03;;;2.83;;
47575;SDS011;33304;52.456;13.328;2022-10-30T02:23:33;2.80;;;2.60;;
47575;SDS011;33304;52.456;13.328;2022-10-30T02:26:02;3.30;;;2.73;;
47575;SDS011;33304;52.456;13.328;2022-10-30T02:28:29;3.50;;;2.83;;
47575;SDS011;33304;52.456;13.328;2022-10-30T02:30:56;2.50;;;2.30;;
47575;SDS011;33304;52.456;13.328;2022-10-30T02:33:23;2.77;;;2.57;;
47575;SDS011;33304;52.456;13.328;2022-10-30T02:35:51;2.97;;;2.30;;
47575;SDS011;33304;52.456;13.328;2022-10-30T02:38:20;2.60;;;2.40;;
47575;SDS011;33304;52.456;13.328;2022-10-30T02:40:49;2.47;;;2.27;;
47575;SDS011;33304;52.456;13.328;2022-10-30T02:43:16;3.10;;;2.60;;
47575;SDS011;33304;52.456;13.328;2022-10-30T02:45:43;2.63;;;2.43;;
47575;SDS011;33304;52.456;13.328;2022-10-30T02:48:15;2.27;;;2.07;;
47575;SDS011;33304;52.456;13.328;2022-10-30T02:50:43;2.70;;;2.50;;
47575;SDS011;33304;52.456;13.328;2022-10-30T02:53:10;2.50;;;2.30;;
47575;SDS011;33304;52.456;13.328;2022-10-30T02:55:38;2.63;;;2.20;;
47575;SDS011;33304;52.456;13.328;2022-10-30T02:58:06;3.80;;;2.30;;
47575;SDS011;33304;52.456;13.328;2022-10-30T03:00:33;3.37;;;2.30;;
47575;SDS011;33304;52.456;13.328;2022-10-30T03:03:00;2.20;;;2.00;;
47575;SDS011;33304;52.456;13.328;2022-10-30T03:05:27;1.80;;;1.70;;
47575;SDS011;33304;52.456;13.328;2022-10-30T03:07:54;3.03;;;2.40;;
47575;SDS011;33304;52.456;13.328;2022-10-30T03:10:21;4.03;;;2.43;;
47575;SDS011;33304;52.456;13.328;2022-10-30T03:12:50;2.43;;;2.20;;
47575;SDS011;33304;52.456;13.328;2022-10-30T03:15:17;2.73;;;1.83;;
47575;SDS011;33304;52.456;13.328;2022-10-30T03:17:44;2.40;;;2.20;;
47575;SDS011;33304;52.456;13.328;2022-10-30T03:20:12;2.33;;;2.13;;
47575;SDS011;33304;52.456;13.328;2022-10-30T03:22:39;3.07;;;2.80;;
47575;SDS011;33304;52.456;13.328;2022-10-30T03:25:06;2.50;;;2.30;;
47575;SDS011;33304;52.456;13.328;2022-10-30T03:27:34;2.50;;;2.30;;
47575;SDS011;33304;52.456;13.328;2022-10-30T03:30:03;3.27;;;2.83;;
47575;SDS011;33304;52.456;13.328;2022-10-30T03:32:31;2.30;;;2.10;;
47575;SDS011;33304;52.456;13.328;2022-10-30T03:34:59;2.53;;;2.33;;
47575;SDS011;33304;52.456;13.328;2022-10-30T03:37:26;2.27;;;2.10;;
47575;SDS011;33304;52.456;13.328;2022-10-30T03:39:53;2.63;;;2.10;;
47575;SDS011;33304;52.456;13.328;2022-10-30T03:42:21;3.90;;;2.33;;
47575;SDS011;33304;52.456;13.328;2022-10-30T03:44:50;2.83;;;2.63;;
47575;SDS011;33304;52.456;13.328;2022-10-30T03:47:18;6.33;;;2.40;;
47575;SDS011;33304;52.456;13.328;2022-10-30T03:49:46;2.67;;;2.47;;
47575;SDS011;33304;52.456;13.328;2022-10-30T03:52:17;2.43;;;2.23;;
47575;SDS011;33304;52.456;13.328;2022-10-30T03:54:47;2.47;;;2.27;;
47575;SDS011;33304;52.456;13.328;2022-10-30T03:57:16;3.10;;;2.73;;
47575;SDS011;33304;52.456;13.328;2022-10-30T04:00:00;2.20;;;2.00;;
47575;SDS011;33304;52.456;13.328;2022-10-30T04:02:44;3.07;;;2.77;;
47575;SDS011;33304;52.456;13.328;2022-10-30T04:05:12;2.27;;;2.07;;
47575;SDS011;33304;52.456;13.328;2022-10-30T04:07:40;2.53;;;2.33;;
47575;SDS011;33304;52.456;13.328;2022-10-30T04:10:08;2.53;;;2.03;;
47575;SDS011;33304;52.456;13.328;2022-10-30T04:12:35;2.17;;;1.97;;
47575;SDS011;33304;52.456;13.328;2022-10-30T04:15:03;3.03;;;2.70;;
47575;SDS011;33304;52.456;13.328;2022-10-30T04:17:31;2.23;;;1.90;;
47575;SDS011;33304;52.456;13.328;2022-10-30T04:20:04;2.47;;;2.27;;
47575;SDS011;33304;52.456;13.328;2022-10-30T04:22:32;2.20;;;2.00;;
47575;SDS011;33304;52.456;13.328;2022-10-30T04:24:59;3.90;;;2.60;;
47575;SDS011;33304;52.456;13.328;2022-10-30T04:27:29;2.37;;;2.10;;
47575;SDS011;33304;52.456;13.328;2022-10-30T04:29:56;2.97;;;2.53;;
47575;SDS011;33304;52.456;13.328;2022-10-30T04:32:23;5.17;;;2.20;;
47575;SDS011;33304;52.456;13.328;2022-10-30T04:34:54;3.40;;;2.20;;
47575;SDS011;33304;52.456;13.328;2022-10-30T04:37:22;3.77;;;2.20;;
47575;SDS011;33304;52.456;13.328;2022-10-30T04:39:50;2.47;;;2.20;;
47575;SDS011;33304;52.456;13.328;2022-10-30T04:42:21;2.47;;;2.10;;
47575;SDS011;33304;52.456;13.328;2022-10-30T04:44:48;2.53;;;2.33;;
47575;SDS011;33304;52.456;13.328;2022-10-30T04:47:15;2.47;;;2.27;;
47575;SDS011;33304;52.456;13.328;2022-10-30T04:49:42;3.03;;;2.53;;
47575;SDS011;33304;52.456;13.328;2022-10-30T04:52:10;2.97;;;2.60;;
47575;SDS011;33304;52.456;13.328;2022-10-30T04:54:38;2.30;;;2.00;;
47575;SDS011;33304;52.456;13.328;2022-10-30T04:57:05;2.60;;;2.40;;
47575;SDS011;33304;52.456;13.328;2022-10-30T04:59:33;2.00;;;1.80;;
47575;SDS011;33304;52.456;13.328;2022-10-30T05:02:00;6.20;;;2.60;;
47575;SDS011;33304;52.456;13.328;2022-10-30T05:04:28;2.10;;;1.97;;
47575;SDS011;33304;52.456;13.328;2022-10-30T05:06:55;3.20;;;1.97;;
47575;SDS011;33304;52.456;13.328;2022-10-30T05:09:22;2.27;;;1.90;;
47575;SDS011;33304;52.456;13.328;2022-10-30T05:11:50;3.00;;;2.80;;
47575;SDS011;33304;52.456;13.328;2022-10-30T05:14:18;3.30;;;2.30;;
47575;SDS011;33304;52.456;13.328;2022-10-30T05:16:45;1.60;;;1.50;;
47575;SDS011;33304;52.456;13.328;2022-10-30T05:19:12;1.90;;;1.70;;
47575;SDS011;33304;52.456;13.328;2022-10-30T05:21:44;2.43;;;2.20;;
47575;SDS011;33304;52.456;13.328;2022-10-30T05:24:12;2.10;;;1.90;;
47575;SDS011;33304;52.456;13.328;2022-10-30T05:26:42;3.57;;;2.50;;
47575;SDS011;33304;52.456;13.328;2022-10-30T05:29:12;2.20;;;2.00;;
47575;SDS011;33304;52.456;13.328;2022-10-30T05:31:39;2.53;;;2.33;;
47575;SDS011;33304;52.456;13.328;2022-10-30T05:34:30;2.83;;;2.53;;
47575;SDS011;33304;52.456;13.328;2022-10-30T05:36:57;2.57;;;2.33;;
47575;SDS011;33304;52.456;13.328;2022-10-30T05:39:26;3.63;;;2.17;;
47575;SDS011;33304;52.456;13.328;2022-10-30T05:41:53;2.40;;;2.20;;
47575;SDS011;33304;52.456;13.328;2022-10-30T05:44:23;2.93;;;2.60;;
47575;SDS011;33304;52.456;13.328;2022-10-30T05:46:51;2.67;;;2.20;;
47575;SDS011;33304;52.456;13.328;2022-10-30T05:49:23;2.30;;;2.10;;
47575;SDS011;33304;52.456;13.328;2022-10-30T05:51:51;2.47;;;2.27;;
47575;SDS011;33304;52.456;13.328;2022-10-30T05:54:18;2.43;;;2.23;;
47575;SDS011;33304;52.456;13.328;2022-10-30T05:57:03;2.23;;;2.03;;
47575;SDS011;33304;52.456;13.328;2022-10-30T05:59:35;2.57;;;2.10;;
47575;SDS011;33304;52.456;13.328;2022-10-30T06:02:02;2.67;;;1.77;;
47575;SDS011;33304;52.456;13.328;2022-10-30T06:04:31;3.33;;;2.13;;
47575;SDS011;33304;52.456;13.328;2022-10-30T06:07:01;3.37;;;2.63;;
47575;SDS011;33304;52.456;13.328;2022-10-30T06:09:28;1.77;;;1.63;;
47575;SDS011;33304;52.456;13.328;2022-10-30T06:11:55;2.20;;;2.00;;
47575;SDS011;33304;52.456;13.328;2022-10-30T06:14:35;6.33;;;1.87;;
47575;SDS011;33304;52.456;13.328;2022-10-30T06:17:03;1.87;;;1.77;;
47575;SDS011;33304;52.456;13.328;2022-10-30T06:19:53;2.40;;;2.20;;
47575;SDS011;33304;52.456;13.328;2022-10-30T06:22:53;1.90;;;1.80;;
47575;SDS011;33304;52.456;13.328;2022-10-30T06:25:23;2.17;;;1.97;;
47575;SDS011;33304;52.456;13.328;2022-10-30T06:28:08;2.57;;;2.00;;
47575;SDS011;33304;52.456;13.328;2022-10-30T06:30:39;3.83;;;2.33;;
47575;SDS011;33304;52.456;13.328;2022-10-30T06:33:06;1.93;;;1.73;;
47575;SDS011;33304;52.456;13.328;2022-10-30T06:35:38;2.50;;;1.97;;
47575;SDS011;33304;52.456;13.328;2022-10-30T06:38:05;3.90;;;2.27;;
47575;SDS011;33304;52.456;13.328;2022-10-30T06:40:34;3.83;;;1.67;;
47575;SDS011;33304;52.456;13.328;2022-10-30T06:43:20;2.13;;;2.00;;
47575;SDS011;33304;52.456;13.328;2022-10-30T06:45:55;2.43;;;2.10;;
47575;SDS011;33304;52.456;13.328;2022-10-30T06:48:23;2.43;;;2.13;;
47575;SDS011;33304;52.456;13.328;2022-10-30T06:50:54;2.77;;;1.90;;
47575;SDS011;33304;52.456;13.328;2022-10-30T06:53:23;2.53;;;2.33;;
47575;SDS011;33304;52.456;13.328;2022-10-30T06:55:55;2.23;;;2.00;;
47575;SDS011;33304;52.456;13.328;2022-10-30T06:58:39;2.33;;;1.77;;
47575;SDS011;33304;52.456;13.328;2022-10-30T07:01:11;2.87;;;2.00;;
47575;SDS011;33304;52.456;13.328;2022-10-30T07:03:57;3.37;;;2.80;;
47575;SDS011;33304;52.456;13.328;2022-10-30T07:06:25;1.97;;;1.47;;
47575;SDS011;33304;52.456;13.328;2022-10-30T07:08:52;2.30;;;2.10;;
47575;SDS011;33304;52.456;13.328;2022-10-30T07:11:20;1.53;;;1.43;;
47575;SDS011;33304;52.456;13.328;2022-10-30T07:13:59;1.97;;;1.73;;
47575;SDS011;33304;52.456;13.328;2022-10-30T07:16:37;3.17;;;1.80;;
47575;SDS011;33304;52.456;13.328;2022-10-30T07:19:04;1.90;;;1.80;;
47575;SDS011;33304;52.456;13.328;2022-10-30T07:21:32;2.93;;;2.03;;
47575;SDS011;33304;52.456;13.328;2022-10-30T07:24:04;2.87;;;1.53;;
47575;SDS011;33304;52.456;13.328;2022-10-30T07:26:43;2.03;;;1.83;;
47575;SDS011;33304;52.456;13.328;2022-10-30T07:29:29;2.00;;;1.90;;
47575;SDS011;33304;52.456;13.328;2022-10-30T07:32:19;3.03;;;2.13;;
47575;SDS011;33304;52.456;13.328;2022-10-30T07:35:05;1.83;;;1.73;;
47575;SDS011;33304;52.456;13.328;2022-10-30T07:37:52;2.07;;;1.97;;
47575;SDS011;33304;52.456;13.328;2022-10-30T07:40:25;2.70;;;2.07;;
47575;SDS011;33304;52.456;13.328;2022-10-30T07:42:59;5.37;;;2.43;;
47575;SDS011;33304;52.456;13.328;2022-10-30T07:46:06;1.70;;;1.60;;
47575;SDS011;33304;52.456;13.328;2022-10-30T07:48:57;2.17;;;2.03;;
47575;SDS011;33304;52.456;13.328;2022-10-30T07:51:39;4.13;;;2.63;;
47575;SDS011;33304;52.456;13.328;2022-10-30T07:54:06;2.57;;;2.37;;
47575;SDS011;33304;52.456;13.328;2022-10-30T07:56:34;2.87;;;2.30;;
47575;SDS011;33304;52.456;13.328;2022-10-30T07:59:20;5.93;;;1.97;;
47575;SDS011;33304;52.456;13.328;2022-10-30T08:01:58;2.37;;;2.17;;
47575;SDS011;33304;52.456;13.328;2022-10-30T08:04:36;2.23;;;2.03;;
47575;SDS011;33304;52.456;13.328;2022-10-30T08:07:18;2.00;;;1.90;;
47575;SDS011;33304;52.456;13.328;2022-10-30T08:09:45;2.23;;;2.03;;
47575;SDS011;33304;52.456;13.328;2022-10-30T08:12:12;2.53;;;1.60;;
47575;SDS011;33304;52.456;13.328;2022-10-30T08:14:39;2.73;;;2.10;;
47575;SDS011;33304;52.456;13.328;2022-10-30T08:17:06;2.03;;;1.93;;
47575;SDS011;33304;52.456;13.328;2022-10-30T08:19:36;2.03;;;1.93;;
47575;SDS011;33304;52.456;13.328;2022-10-30T08:22:04;2.43;;;2.23;;
47575;SDS011;33304;52.456;13.328;2022-10-30T08:24:34;2.30;;;2.10;;
47575;SDS011;33304;52.456;13.328;2022-10-30T08:27:02;1.87;;;1.77;;
47575;SDS011;33304;52.456;13.328;2022-10-30T08:29:30;3.13;;;1.80;;
47575;SDS011;33304;52.456;13.328;2022-10-30T08:31:59;2.23;;;1.90;;
47575;SDS011;33304;52.456;13.328;2022-10-30T08:34:46;2.30;;;2.10;;
47575;SDS011;33304;52.456;13.328;2022-10-30T08:37:16;2.27;;;2.07;;
47575;SDS011;33304;52.456;13.328;2022-10-30T08:39:43;2.40;;;1.90;;
47575;SDS011;33304;52.456;13.328;2022-10-30T08:42:28;1.97;;;1.70;;
47575;SDS011;33304;52.456;13.328;2022-10-30T08:44:58;1.60;;;1.50;;
47575;SDS011;33304;52.456;13.328;2022-10-30T08:47:43;1.67;;;1.57;;
47575;SDS011;33304;52.456;13.328;2022-10-30T08:50:13;1.63;;;1.53;;
47575;SDS011;33304;52.456;13.328;2022-10-30T08:52:40;1.47;;;1.37;;
47575;SDS011;33304;52.456;13.328;2022-10-30T08:55:07;2.10;;;1.90;;
47575;SDS011;33304;52.456;13.328;2022-10-30T08:57:35;2.27;;;1.60;;
47575;SDS011;33304;52.456;13.328;2022-10-30T09:00:03;4.40;;;1.80;;
47575;SDS011;33304;52.456;13.328;2022-10-30T09:02:50;2.07;;;1.97;;
47575;SDS011;33304;52.456;13.328;2022-10-30T09:05:57;2.47;;;1.53;;
47575;SDS011;33304;52.456;13.328;2022-10-30T09:08:45;1.83;;;1.30;;
47575;SDS011;33304;52.456;13.328;2022-10-30T09:11:27;1.60;;;1.43;;
47575;SDS011;33304;52.456;13.328;2022-10-30T09:13:55;1.60;;;1.50;;
47575;SDS011;33304;52.456;13.328;2022-10-30T09:16:23;1.73;;;1.63;;
47575;SDS011;33304;52.456;13.328;2022-10-30T09:18:50;1.60;;;1.50;;
47575;SDS011;33304;52.456;13.328;2022-10-30T09:21:19;1.70;;;1.60;;
47575;SDS011;33304;52.456;13.328;2022-10-30T09:23:49;2.07;;;1.87;;
47575;SDS011;33304;52.456;13.328;2022-10-30T09:26:45;2.10;;;1.70;;
47575;SDS011;33304;52.456;13.328;2022-10-30T09:29:17;3.13;;;1.87;;
47575;SDS011;33304;52.456;13.328;2022-10-30T09:32:01;2.30;;;1.57;;
47575;SDS011;33304;52.456;13.328;2022-10-30T09:34:35;1.63;;;1.20;;
47575;SDS011;33304;52.456;13.328;2022-10-30T09:37:33;2.00;;;1.37;;
47575;SDS011;33304;52.456;13.328;2022-10-30T09:40:01;1.60;;;1.50;;
47575;SDS011;33304;52.456;13.328;2022-10-30T09:42:33;1.47;;;1.37;;
47575;SDS011;33304;52.456;13.328;2022-10-30T09:45:17;2.50;;;1.63;;
47575;SDS011;33304;52.456;13.328;2022-10-30T09:48:15;1.53;;;1.43;;
47575;SDS011;33304;52.456;13.328;2022-10-30T09:51:05;1.60;;;1.50;;
47575;SDS011;33304;52.456;13.328;2022-10-30T09:53:46;1.70;;;1.60;;
47575;SDS011;33304;52.456;13.328;2022-10-30T09:56:28;1.20;;;1.20;;
47575;SDS011;33304;52.456;13.328;2022-10-30T09:59:02;1.37;;;1.20;;
47575;SDS011;33304;52.456;13.328;2022-10-30T10:01:35;2.47;;;1.83;;
47575;SDS011;33304;52.456;13.328;2022-10-30T10:04:11;1.50;;;1.40;;
47575;SDS011;33304;52.456;13.328;2022-10-30T10:07:12;2.07;;;1.50;;
47575;SDS011;33304;52.456;13.328;2022-10-30T10:09:56;1.30;;;1.00;;
47575;SDS011;33304;52.456;13.328;2022-10-30T10:12:45;1.40;;;1.30;;
47575;SDS011;33304;52.456;13.328;2022-10-30T10:15:16;2.10;;;1.40;;
47575;SDS011;33304;52.456;13.328;2022-10-30T10:17:52;1.43;;;1.33;;
47575;SDS011;33304;52.456;13.328;2022-10-30T10:20:24;1.20;;;1.10;;
47575;SDS011;33304;52.456;13.328;2022-10-30T10:22:55;1.30;;;1.20;;
47575;SDS011;33304;52.456;13.328;2022-10-30T10:25:27;1.20;;;1.20;;
47575;SDS011;33304;52.456;13.328;2022-10-30T10:27:59;1.57;;;1.47;;
47575;SDS011;33304;52.456;13.328;2022-10-30T10:30:35;2.63;;;1.30;;
47575;SDS011;33304;52.456;13.328;2022-10-30T10:33:22;1.00;;;1.00;;
47575;SDS011;33304;52.456;13.328;2022-10-30T10:36:01;1.50;;;1.07;;
47575;SDS011;33304;52.456;13.328;2022-10-30T10:38:37;3.57;;;1.37;;
47575;SDS011;33304;52.456;13.328;2022-10-30T10:41:17;1.27;;;1.10;;
47575;SDS011;33304;52.456;13.328;2022-10-30T10:43:57;1.20;;;1.10;;
47575;SDS011;33304;52.456;13.328;2022-10-30T10:46:37;2.47;;;1.20;;
47575;SDS011;33304;52.456;13.328;2022-10-30T10:49:25;2.10;;;1.20;;
47575;SDS011;33304;52.456;13.328;2022-10-30T10:52:08;2.43;;;1.30;;
47575;SDS011;33304;52.456;13.328;2022-10-30T10:54:40;1.60;;;1.30;;
47575;SDS011;33304;52.456;13.328;2022-10-30T10:57:13;1.30;;;1.30;;
47575;SDS011;33304;52.456;13.328;2022-10-30T10:59:45;1.80;;;1.70;;
47575;SDS011;33304;52.456;13.328;2022-10-30T11:02:23;1.10;;;1.10;;
47575;SDS011;33304;52.456;13.328;2022-10-30T11:04:58;1.27;;;1.17;;
47575;SDS011;33304;52.456;13.328;2022-10-30T11:07:33;1.33;;;1.13;;
47575;SDS011;33304;52.456;13.328;2022-10-30T11:10:05;1.53;;;1.43;;
47575;SDS011;33304;52.456;13.328;2022-10-30T11:12:39;1.00;;;1.00;;
47575;SDS011;33304;52.456;13.328;2022-10-30T11:15:16;0.90;;;0.90;;
47575;SDS011;33304;52.456;13.328;2022-10-30T11:17:49;1.30;;;1.20;;
47575;SDS011;33304;52.456;13.328;2022-10-30T11:20:28;2.67;;;1.27;;
47575;SDS011;33304;52.456;13.328;2022-10-30T11:23:01;1.50;;;1.40;;
47575;SDS011;33304;52.456;13.328;2022-10-30T11:25:32;1.30;;;1.20;;
47575;SDS011;33304;52.456;13.328;2022-10-30T11:28:02;1.50;;;1.40;;
47575;SDS011;33304;52.456;13.328;2022-10-30T11:30:31;1.30;;;1.00;;
47575;SDS011;33304;52.456;13.328;2022-10-30T11:32:58;1.10;;;1.00;;
47575;SDS011;33304;52.456;13.328;2022-10-30T11:35:45;1.53;;;1.30;;
47575;SDS011;33304;52.456;13.328;2022-10-30T11:38:15;1.23;;;1.13;;
47575;SDS011;33304;52.456;13.328;2022-10-30T11:40:45;1.17;;;1.17;;
47575;SDS011;33304;52.456;13.328;2022-10-30T11:43:17;1.57;;;1.30;;
47575;SDS011;33304;52.456;13.328;2022-10-30T11:45:46;1.60;;;1.50;;
47575;SDS011;33304;52.456;13.328;2022-10-30T11:48:17;1.67;;;1.57;;
47575;SDS011;33304;52.456;13.328;2022-10-30T11:50:48;1.40;;;1.30;;
47575;SDS011;33304;52.456;13.328;2022-10-30T11:53:18;1.43;;;1.33;;
47575;SDS011;33304;52.456;13.328;2022-10-30T11:55:50;1.93;;;1.37;;
47575;SDS011;33304;52.456;13.328;2022-10-30T11:58:22;1.40;;;1.30;;
47575;SDS011;33304;52.456;13.328;2022-10-30T12:00:57;1.80;;;1.60;;
47575;SDS011;33304;52.456;13.328;2022-10-30T12:03:28;1.50;;;1.40;;
47575;SDS011;33304;52.456;13.328;2022-10-30T12:06:06;1.80;;;1.70;;
47575;SDS011;33304;52.456;13.328;2022-10-30T12:08:35;1.63;;;1.53;;
47575;SDS011;33304;52.456;13.328;2022-10-30T12:11:03;1.60;;;1.50;;
47575;SDS011;33304;52.456;13.328;2022-10-30T12:13:35;1.25;;;1.15;;
47575;SDS011;33304;52.456;13.328;2022-10-30T12:16:05;1.40;;;1.30;;
47575;SDS011;33304;52.456;13.328;2022-10-30T12:18:40;3.50;;;1.50;;
47575;SDS011;33304;52.456;13.328;2022-10-30T12:21:08;1.60;;;1.48;;
47575;SDS011;33304;52.456;13.328;2022-10-30T12:23:36;1.60;;;1.50;;
47575;SDS011;33304;52.456;13.328;2022-10-30T12:26:08;1.30;;;1.30;;
47575;SDS011;33304;52.456;13.328;2022-10-30T12:28:38;4.68;;;1.70;;
47575;SDS011;33304;52.456;13.328;2022-10-30T12:31:08;4.30;;;1.75;;
47575;SDS011;33304;52.456;13.328;2022-10-30T12:33:40;1.75;;;1.65;;
47575;SDS011;33304;52.456;13.328;2022-10-30T12:36:15;1.42;;;1.40;;
47575;SDS011;33304;52.456;13.328;2022-10-30T12:38:46;1.85;;;1.60;;
47575;SDS011;33304;52.456;13.328;2022-10-30T12:41:18;1.75;;;1.65;;
47575;SDS011;33304;52.456;13.328;2022-10-30T12:43:53;1.80;;;1.70;;
47575;SDS011;33304;52.456;13.328;2022-10-30T12:46:29;1.88;;;1.77;;
47575;SDS011;33304;52.456;13.328;2022-10-30T12:49:02;2.92;;;1.95;;
47575;SDS011;33304;52.456;13.328;2022-10-30T12:51:37;2.13;;;1.85;;
47575;SDS011;33304;52.456;13.328;2022-10-30T12:54:13;3.28;;;3.08;;
47575;SDS011;33304;52.456;13.328;2022-10-30T12:56:49;1.95;;;1.85;;
47575;SDS011;33304;52.456;13.328;2022-10-30T12:59:28;3.85;;;3.65;;
47575;SDS011;33304;52.456;13.328;2022-10-30T13:02:07;2.28;;;2.17;;
47575;SDS011;33304;52.456;13.328;2022-10-30T13:04:40;1.80;;;1.70;;
47575;SDS011;33304;52.456;13.328;2022-10-30T13:07:11;2.83;;;2.72;;
47575;SDS011;33304;52.456;13.328;2022-10-30T13:09:47;2.65;;;2.55;;
47575;SDS011;33304;52.456;13.328;2022-10-30T13:12:21;1.90;;;1.80;;
47575;SDS011;33304;52.456;13.328;2022-10-30T13:14:55;2.30;;;2.20;;
47575;SDS011;33304;52.456;13.328;2022-10-30T13:17:26;2.88;;;2.78;;
47575;SDS011;33304;52.456;13.328;2022-10-30T13:19:54;4.25;;;4.05;;
47575;SDS011;33304;52.456;13.328;2022-10-30T13:22:22;2.20;;;2.00;;
47575;SDS011;33304;52.456;13.328;2022-10-30T13:24:56;1.98;;;1.88;;
47575;SDS011;33304;52.456;13.328;2022-10-30T13:27:28;1.70;;;1.60;;
47575;SDS011;33304;52.456;13.328;2022-10-30T13:30:08;2.40;;;2.30;;
47575;SDS011;33304;52.456;13.328;2022-10-30T13:32:40;2.58;;;2.40;;
47575;SDS011;33304;52.456;13.328;2022-10-30T13:35:17;1.90;;;1.80;;
47575;SDS011;33304;52.456;13.328;2022-10-30T13:37:54;1.63;;;1.52;;
47575;SDS011;33304;52.456;13.328;2022-10-30T13:40:27;1.85;;;1.73;;
47575;SDS011;33304;52.456;13.328;2022-10-30T13:43:04;1.95;;;1.85;;
47575;SDS011;33304;52.456;13.328;2022-10-30T13:45:50;1.95;;;1.85;;
47575;SDS011;33304;52.456;13.328;2022-10-30T13:49:08;1.90;;;1.80;;
47575;SDS011;33304;52.456;13.328;2022-10-30T13:51:47;1.98;;;1.85;;
47575;SDS011;33304;52.456;13.328;2022-10-30T13:54:21;1.98;;;1.88;;
47575;SDS011;33304;52.456;13.328;2022-10-30T13:56:52;1.63;;;1.52;;
47575;SDS011;33304;52.456;13.328;2022-10-30T13:59:30;1.88;;;1.77;;
47575;SDS011;33304;52.456;13.328;2022-10-30T14:02:13;1.85;;;1.73;;
47575;SDS011;33304;52.456;13.328;2022-10-30T14:04:49;2.00;;;1.90;;
47575;SDS011;33304;52.456;13.328;2022-10-30T14:07:22;1.88;;;1.77;;
47575;SDS011;33304;52.456;13.328;2022-10-30T14:09:57;1.63;;;1.52;;
47575;SDS011;33304;52.456;13.328;2022-10-30T14:12:43;2.13;;;1.95;;
47575;SDS011;33304;52.456;13.328;2022-10-30T14:15:15;2.05;;;1.95;;
47575;SDS011;33304;52.456;13.328;2022-10-30T14:20:49;1.95;;;1.80;;
47575;SDS011;33304;52.456;13.328;2022-10-30T14:23:19;2.05;;;1.95;;
47575;SDS011;33304;52.456;13.328;2022-10-30T14:28:40;1.70;;;1.60;;
47575;SDS011;33304;52.456;13.328;2022-10-30T14:31:10;1.58;;;1.58;;
47575;SDS011;33304;52.456;13.328;2022-10-30T14:33:43;2.50;;;2.00;;
47575;SDS011;33304;52.456;13.328;2022-10-30T14:36:12;1.95;;;1.85;;
47575;SDS011;33304;52.456;13.328;2022-10-30T14:38:41;2.95;;;1.90;;
47575;SDS011;33304;52.456;13.328;2022-10-30T14:47:33;1.52;;;1.42;;
47575;SDS011;33304;52.456;13.328;2022-10-30T14:50:19;1.73;;;1.63;;
47575;SDS011;33304;52.456;13.328;2022-10-30T14:53:00;2.17;;;2.00;;
47575;SDS011;33304;52.456;13.328;2022-10-30T14:55:48;2.08;;;1.98;;
47575;SDS011;33304;52.456;13.328;2022-10-30T14:58:22;1.83;;;1.73;;
47575;SDS011;33304;52.456;13.328;2022-10-30T15:00:53;1.60;;;1.50;;
47575;SDS011;33304;52.456;13.328;2022-10-30T15:03:46;1.90;;;1.80;;
47575;SDS011;33304;52.456;13.328;2022-10-30T15:06:21;1.50;;;1.40;;
47575;SDS011;33304;52.456;13.328;2022-10-30T15:09:02;1.67;;;1.45;;
47575;SDS011;33304;52.456;13.328;2022-10-30T15:11:39;1.45;;;1.35;;
47575;SDS011;33304;52.456;13.328;2022-10-30T15:14:23;1.73;;;1.63;;
47575;SDS011;33304;52.456;13.328;2022-10-30T15:16:53;1.55;;;1.45;;
47575;SDS011;33304;52.456;13.328;2022-10-30T15:19:21;1.90;;;1.80;;
47575;SDS011;33304;52.456;13.328;2022-10-30T15:21:51;2.00;;;1.90;;